sensor_id;sensor_type;location;lat;lon;timestamp;P1;durP1;ratioP1;P2;durP2;ratioP2
71790;SDS011;59638;52.126;5.434;2023-05-07T00:01:34;5.30;;;4.50;;
71790;SDS011;59638;52.126;5.434;2023-05-07T00:04:01;4.07;;;3.67;;
71790;SDS011;59638;52.126;5.434;2023-05-07T00:06:29;6.80;;;4.60;;
71790;SDS011;59638;52.126;5.434;2023-05-07T00:08:56;4.75;;;4.40;;
71790;SDS011;59638;52.126;5.434;2023-05-07T00:11:23;7.97;;;4.97;;
71790;SDS011;59638;52.126;5.434;2023-05-07T00:13:49;5.27;;;4.03;;
71790;SDS011;59638;52.126;5.434;2023-05-07T00:16:16;5.25;;;4.13;;
71790;SDS011;59638;52.126;5.434;2023-05-07T00:18:42;5.57;;;4.40;;
71790;SDS011;59638;52.126;5.434;2023-05-07T00:21:10;5.45;;;4.50;;
71790;SDS011;59638;52.126;5.434;2023-05-07T00:23:37;4.72;;;4.32;;
71790;SDS011;59638;52.126;5.434;2023-05-07T00:26:03;4.23;;;3.93;;
71790;SDS011;59638;52.126;5.434;2023-05-07T00:28:30;5.70;;;5.20;;
71790;SDS011;59638;52.126;5.434;2023-05-07T00:30:56;9.65;;;4.47;;
71790;SDS011;59638;52.126;5.434;2023-05-07T00:33:23;5.25;;;4.80;;
71790;SDS011;59638;52.126;5.434;2023-05-07T00:35:49;6.47;;;4.97;;
71790;SDS011;59638;52.126;5.434;2023-05-07T00:38:16;4.77;;;4.23;;
71790;SDS011;59638;52.126;5.434;2023-05-07T00:40:42;6.10;;;4.85;;
71790;SDS011;59638;52.126;5.434;2023-05-07T00:43:08;6.78;;;5.75;;
71790;SDS011;59638;52.126;5.434;2023-05-07T00:45:35;6.10;;;4.95;;
71790;SDS011;59638;52.126;5.434;2023-05-07T00:48:02;4.72;;;4.32;;
71790;SDS011;59638;52.126;5.434;2023-05-07T00:50:29;6.30;;;5.70;;
71790;SDS011;59638;52.126;5.434;2023-05-07T00:52:58;6.13;;;4.50;;
71790;SDS011;59638;52.126;5.434;2023-05-07T00:55:25;5.38;;;4.88;;
71790;SDS011;59638;52.126;5.434;2023-05-07T00:57:52;4.93;;;4.43;;
71790;SDS011;59638;52.126;5.434;2023-05-07T01:00:18;6.35;;;4.78;;
71790;SDS011;59638;52.126;5.434;2023-05-07T01:02:45;10.70;;;4.30;;
71790;SDS011;59638;52.126;5.434;2023-05-07T01:05:14;6.32;;;5.65;;
71790;SDS011;59638;52.126;5.434;2023-05-07T01:07:44;6.70;;;5.35;;
71790;SDS011;59638;52.126;5.434;2023-05-07T01:10:11;6.65;;;5.07;;
71790;SDS011;59638;52.126;5.434;2023-05-07T01:12:38;9.25;;;5.22;;
71790;SDS011;59638;52.126;5.434;2023-05-07T01:15:07;5.83;;;5.23;;
71790;SDS011;59638;52.126;5.434;2023-05-07T01:17:36;6.28;;;5.70;;
71790;SDS011;59638;52.126;5.434;2023-05-07T01:20:04;6.43;;;5.85;;
71790;SDS011;59638;52.126;5.434;2023-05-07T01:22:35;8.07;;;5.78;;
71790;SDS011;59638;52.126;5.434;2023-05-07T01:25:03;6.13;;;5.72;;
71790;SDS011;59638;52.126;5.434;2023-05-07T01:27:30;5.07;;;4.67;;
71790;SDS011;59638;52.126;5.434;2023-05-07T01:29:57;6.38;;;5.40;;
71790;SDS011;59638;52.126;5.434;2023-05-07T01:32:25;6.35;;;5.72;;
71790;SDS011;59638;52.126;5.434;2023-05-07T01:34:55;6.32;;;5.82;;
71790;SDS011;59638;52.126;5.434;2023-05-07T01:37:23;5.88;;;5.40;;
71790;SDS011;59638;52.126;5.434;2023-05-07T01:39:51;6.97;;;5.57;;
71790;SDS011;59638;52.126;5.434;2023-05-07T01:42:19;5.38;;;4.97;;
71790;SDS011;59638;52.126;5.434;2023-05-07T01:44:45;7.05;;;5.75;;
71790;SDS011;59638;52.126;5.434;2023-05-07T01:47:12;6.95;;;5.30;;
71790;SDS011;59638;52.126;5.434;2023-05-07T01:49:40;6.82;;;6.18;;
71790;SDS011;59638;52.126;5.434;2023-05-07T01:52:09;7.27;;;5.97;;
71790;SDS011;59638;52.126;5.434;2023-05-07T01:54:37;6.15;;;5.65;;
71790;SDS011;59638;52.126;5.434;2023-05-07T01:57:04;6.03;;;5.47;;
71790;SDS011;59638;52.126;5.434;2023-05-07T01:59:30;5.57;;;4.80;;
71790;SDS011;59638;52.126;5.434;2023-05-07T02:01:57;6.50;;;5.00;;
71790;SDS011;59638;52.126;5.434;2023-05-07T02:04:23;6.57;;;4.47;;
71790;SDS011;59638;52.126;5.434;2023-05-07T02:06:50;5.20;;;4.80;;
71790;SDS011;59638;52.126;5.434;2023-05-07T02:09:17;6.88;;;5.82;;
71790;SDS011;59638;52.126;5.434;2023-05-07T02:11:44;6.60;;;5.88;;
71790;SDS011;59638;52.126;5.434;2023-05-07T02:14:10;6.80;;;6.18;;
71790;SDS011;59638;52.126;5.434;2023-05-07T02:16:36;6.43;;;5.90;;
71790;SDS011;59638;52.126;5.434;2023-05-07T02:19:03;6.22;;;5.72;;
71790;SDS011;59638;52.126;5.434;2023-05-07T02:21:29;6.25;;;5.57;;
71790;SDS011;59638;52.126;5.434;2023-05-07T02:23:56;6.15;;;5.57;;
71790;SDS011;59638;52.126;5.434;2023-05-07T02:26:22;6.97;;;6.38;;
71790;SDS011;59638;52.126;5.434;2023-05-07T02:28:49;8.23;;;6.23;;
71790;SDS011;59638;52.126;5.434;2023-05-07T02:31:15;7.38;;;6.70;;
71790;SDS011;59638;52.126;5.434;2023-05-07T02:33:42;6.90;;;6.40;;
71790;SDS011;59638;52.126;5.434;2023-05-07T02:36:09;7.15;;;5.43;;
71790;SDS011;59638;52.126;5.434;2023-05-07T02:38:36;6.50;;;5.88;;
71790;SDS011;59638;52.126;5.434;2023-05-07T02:41:02;6.97;;;6.27;;
71790;SDS011;59638;52.126;5.434;2023-05-07T02:43:29;6.05;;;4.97;;
71790;SDS011;59638;52.126;5.434;2023-05-07T02:46:05;6.72;;;5.90;;
71790;SDS011;59638;52.126;5.434;2023-05-07T02:48:34;7.45;;;5.93;;
71790;SDS011;59638;52.126;5.434;2023-05-07T02:51:01;6.10;;;5.50;;
71790;SDS011;59638;52.126;5.434;2023-05-07T02:53:28;6.33;;;5.73;;
71790;SDS011;59638;52.126;5.434;2023-05-07T02:55:56;7.30;;;5.95;;
71790;SDS011;59638;52.126;5.434;2023-05-07T02:58:23;6.72;;;6.03;;
71790;SDS011;59638;52.126;5.434;2023-05-07T03:00:50;7.43;;;5.65;;
71790;SDS011;59638;52.126;5.434;2023-05-07T03:03:16;7.40;;;5.60;;
71790;SDS011;59638;52.126;5.434;2023-05-07T03:05:43;6.13;;;5.63;;
71790;SDS011;59638;52.126;5.434;2023-05-07T03:08:09;6.78;;;6.18;;
71790;SDS011;59638;52.126;5.434;2023-05-07T03:10:36;7.53;;;6.75;;
71790;SDS011;59638;52.126;5.434;2023-05-07T03:13:03;5.70;;;5.20;;
71790;SDS011;59638;52.126;5.434;2023-05-07T03:15:30;7.60;;;6.80;;
71790;SDS011;59638;52.126;5.434;2023-05-07T03:17:56;8.20;;;6.37;;
71790;SDS011;59638;52.126;5.434;2023-05-07T03:20:23;8.52;;;6.25;;
71790;SDS011;59638;52.126;5.434;2023-05-07T03:22:49;6.65;;;6.07;;
71790;SDS011;59638;52.126;5.434;2023-05-07T03:25:16;7.47;;;6.18;;
71790;SDS011;59638;52.126;5.434;2023-05-07T03:27:42;7.75;;;6.10;;
71790;SDS011;59638;52.126;5.434;2023-05-07T03:30:08;7.70;;;6.90;;
71790;SDS011;59638;52.126;5.434;2023-05-07T03:32:36;8.55;;;6.40;;
71790;SDS011;59638;52.126;5.434;2023-05-07T03:35:02;9.93;;;5.97;;
71790;SDS011;59638;52.126;5.434;2023-05-07T03:37:29;6.53;;;5.93;;
71790;SDS011;59638;52.126;5.434;2023-05-07T03:39:55;7.22;;;6.60;;
71790;SDS011;59638;52.126;5.434;2023-05-07T03:42:22;7.30;;;6.70;;
71790;SDS011;59638;52.126;5.434;2023-05-07T03:44:48;6.95;;;6.35;;
71790;SDS011;59638;52.126;5.434;2023-05-07T03:47:15;7.32;;;6.63;;
71790;SDS011;59638;52.126;5.434;2023-05-07T03:49:41;12.10;;;6.53;;
71790;SDS011;59638;52.126;5.434;2023-05-07T03:52:07;11.50;;;6.10;;
71790;SDS011;59638;52.126;5.434;2023-05-07T03:54:34;12.80;;;6.10;;
71790;SDS011;59638;52.126;5.434;2023-05-07T03:57:00;7.07;;;6.22;;
71790;SDS011;59638;52.126;5.434;2023-05-07T03:59:27;6.68;;;6.10;;
71790;SDS011;59638;52.126;5.434;2023-05-07T04:01:54;7.75;;;6.57;;
71790;SDS011;59638;52.126;5.434;2023-05-07T04:04:20;9.68;;;6.35;;
71790;SDS011;59638;52.126;5.434;2023-05-07T04:06:47;8.63;;;6.93;;
71790;SDS011;59638;52.126;5.434;2023-05-07T04:09:13;6.45;;;5.82;;
71790;SDS011;59638;52.126;5.434;2023-05-07T04:11:40;8.80;;;7.47;;
71790;SDS011;59638;52.126;5.434;2023-05-07T04:14:06;7.05;;;6.35;;
71790;SDS011;59638;52.126;5.434;2023-05-07T04:16:34;9.40;;;7.15;;
71790;SDS011;59638;52.126;5.434;2023-05-07T04:19:01;7.33;;;6.73;;
71790;SDS011;59638;52.126;5.434;2023-05-07T04:21:27;8.65;;;7.55;;
71790;SDS011;59638;52.126;5.434;2023-05-07T04:23:53;8.52;;;7.72;;
71790;SDS011;59638;52.126;5.434;2023-05-07T04:26:20;9.85;;;7.60;;
71790;SDS011;59638;52.126;5.434;2023-05-07T04:28:47;12.93;;;7.65;;
71790;SDS011;59638;52.126;5.434;2023-05-07T04:31:13;8.40;;;7.60;;
71790;SDS011;59638;52.126;5.434;2023-05-07T04:33:40;13.48;;;7.78;;
71790;SDS011;59638;52.126;5.434;2023-05-07T04:36:06;11.48;;;7.28;;
71790;SDS011;59638;52.126;5.434;2023-05-07T04:38:33;8.43;;;7.35;;
71790;SDS011;59638;52.126;5.434;2023-05-07T04:41:03;9.20;;;8.30;;
71790;SDS011;59638;52.126;5.434;2023-05-07T04:43:31;13.63;;;7.10;;
71790;SDS011;59638;52.126;5.434;2023-05-07T04:45:57;9.57;;;7.20;;
71790;SDS011;59638;52.126;5.434;2023-05-07T04:48:24;8.70;;;7.75;;
71790;SDS011;59638;52.126;5.434;2023-05-07T04:50:51;8.50;;;7.70;;
71790;SDS011;59638;52.126;5.434;2023-05-07T04:53:17;9.43;;;8.30;;
71790;SDS011;59638;52.126;5.434;2023-05-07T04:55:44;9.90;;;7.60;;
71790;SDS011;59638;52.126;5.434;2023-05-07T04:58:11;8.30;;;7.47;;
71790;SDS011;59638;52.126;5.434;2023-05-07T05:00:38;8.80;;;7.53;;
71790;SDS011;59638;52.126;5.434;2023-05-07T05:03:08;9.25;;;7.78;;
71790;SDS011;59638;52.126;5.434;2023-05-07T05:05:35;9.13;;;8.02;;
71790;SDS011;59638;52.126;5.434;2023-05-07T05:08:01;8.70;;;7.03;;
71790;SDS011;59638;52.126;5.434;2023-05-07T05:10:28;7.78;;;7.07;;
71790;SDS011;59638;52.126;5.434;2023-05-07T05:12:54;8.82;;;7.88;;
71790;SDS011;59638;52.126;5.434;2023-05-07T05:15:21;9.05;;;7.65;;
71790;SDS011;59638;52.126;5.434;2023-05-07T05:17:47;9.38;;;7.72;;
71790;SDS011;59638;52.126;5.434;2023-05-07T05:20:14;10.07;;;7.03;;
71790;SDS011;59638;52.126;5.434;2023-05-07T05:22:41;11.55;;;7.60;;
71790;SDS011;59638;52.126;5.434;2023-05-07T05:25:08;10.20;;;7.68;;
71790;SDS011;59638;52.126;5.434;2023-05-07T05:27:34;8.82;;;7.03;;
71790;SDS011;59638;52.126;5.434;2023-05-07T05:30:01;9.20;;;8.30;;
71790;SDS011;59638;52.126;5.434;2023-05-07T05:32:29;9.30;;;8.07;;
71790;SDS011;59638;52.126;5.434;2023-05-07T05:34:55;9.38;;;8.15;;
71790;SDS011;59638;52.126;5.434;2023-05-07T05:37:22;9.50;;;7.95;;
71790;SDS011;59638;52.126;5.434;2023-05-07T05:39:48;8.27;;;7.47;;
71790;SDS011;59638;52.126;5.434;2023-05-07T05:42:15;9.48;;;8.43;;
71790;SDS011;59638;52.126;5.434;2023-05-07T05:44:41;9.63;;;8.80;;
71790;SDS011;59638;52.126;5.434;2023-05-07T05:47:08;9.18;;;8.25;;
71790;SDS011;59638;52.126;5.434;2023-05-07T05:49:34;11.55;;;9.38;;
71790;SDS011;59638;52.126;5.434;2023-05-07T05:52:01;10.55;;;8.13;;
71790;SDS011;59638;52.126;5.434;2023-05-07T05:54:27;8.82;;;8.02;;
71790;SDS011;59638;52.126;5.434;2023-05-07T05:56:54;9.40;;;8.50;;
71790;SDS011;59638;52.126;5.434;2023-05-07T05:59:20;10.63;;;9.20;;
71790;SDS011;59638;52.126;5.434;2023-05-07T06:01:47;9.52;;;8.52;;
71790;SDS011;59638;52.126;5.434;2023-05-07T06:04:13;9.52;;;8.63;;
71790;SDS011;59638;52.126;5.434;2023-05-07T06:06:40;9.65;;;8.55;;
71790;SDS011;59638;52.126;5.434;2023-05-07T06:09:06;10.13;;;7.80;;
71790;SDS011;59638;52.126;5.434;2023-05-07T06:11:32;10.55;;;8.85;;
71790;SDS011;59638;52.126;5.434;2023-05-07T06:13:59;10.88;;;9.00;;
71790;SDS011;59638;52.126;5.434;2023-05-07T06:16:25;9.75;;;8.95;;
71790;SDS011;59638;52.126;5.434;2023-05-07T06:18:52;12.77;;;8.98;;
71790;SDS011;59638;52.126;5.434;2023-05-07T06:21:18;9.57;;;8.10;;
71790;SDS011;59638;52.126;5.434;2023-05-07T06:23:44;9.43;;;8.43;;
71790;SDS011;59638;52.126;5.434;2023-05-07T06:26:11;10.05;;;8.68;;
71790;SDS011;59638;52.126;5.434;2023-05-07T06:28:37;11.00;;;8.63;;
71790;SDS011;59638;52.126;5.434;2023-05-07T06:31:13;12.98;;;8.95;;
71790;SDS011;59638;52.126;5.434;2023-05-07T06:33:41;9.90;;;8.93;;
71790;SDS011;59638;52.126;5.434;2023-05-07T06:36:08;12.80;;;8.85;;
71790;SDS011;59638;52.126;5.434;2023-05-07T06:38:35;10.65;;;9.55;;
71790;SDS011;59638;52.126;5.434;2023-05-07T06:41:01;11.48;;;9.88;;
71790;SDS011;59638;52.126;5.434;2023-05-07T06:43:28;10.27;;;9.27;;
71790;SDS011;59638;52.126;5.434;2023-05-07T06:45:54;9.87;;;8.87;;
71790;SDS011;59638;52.126;5.434;2023-05-07T06:48:21;13.65;;;9.27;;
71790;SDS011;59638;52.126;5.434;2023-05-07T06:50:47;12.00;;;10.13;;
71790;SDS011;59638;52.126;5.434;2023-05-07T06:53:14;16.02;;;10.32;;
71790;SDS011;59638;52.126;5.434;2023-05-07T06:55:40;13.43;;;10.32;;
71790;SDS011;59638;52.126;5.434;2023-05-07T06:58:07;10.97;;;9.87;;
71790;SDS011;59638;52.126;5.434;2023-05-07T07:00:34;13.35;;;9.88;;
71790;SDS011;59638;52.126;5.434;2023-05-07T07:03:01;15.75;;;10.60;;
71790;SDS011;59638;52.126;5.434;2023-05-07T07:05:27;12.18;;;10.90;;
71790;SDS011;59638;52.126;5.434;2023-05-07T07:07:53;11.88;;;10.68;;
71790;SDS011;59638;52.126;5.434;2023-05-07T07:10:20;11.00;;;9.90;;
71790;SDS011;59638;52.126;5.434;2023-05-07T07:12:47;11.70;;;10.50;;
71790;SDS011;59638;52.126;5.434;2023-05-07T07:15:15;12.40;;;10.25;;
71790;SDS011;59638;52.126;5.434;2023-05-07T07:17:42;11.45;;;10.25;;
71790;SDS011;59638;52.126;5.434;2023-05-07T07:20:08;11.45;;;10.30;;
71790;SDS011;59638;52.126;5.434;2023-05-07T07:22:37;10.33;;;9.50;;
71790;SDS011;59638;52.126;5.434;2023-05-07T07:25:03;9.93;;;8.95;;
71790;SDS011;59638;52.126;5.434;2023-05-07T07:27:30;11.70;;;10.48;;
71790;SDS011;59638;52.126;5.434;2023-05-07T07:29:56;9.45;;;8.57;;
71790;SDS011;59638;52.126;5.434;2023-05-07T07:32:23;11.57;;;9.35;;
71790;SDS011;59638;52.126;5.434;2023-05-07T07:34:49;9.73;;;8.60;;
71790;SDS011;59638;52.126;5.434;2023-05-07T07:37:16;11.45;;;9.10;;
71790;SDS011;59638;52.126;5.434;2023-05-07T07:39:42;9.77;;;8.95;;
71790;SDS011;59638;52.126;5.434;2023-05-07T07:42:08;13.65;;;9.35;;
71790;SDS011;59638;52.126;5.434;2023-05-07T07:44:35;10.10;;;8.77;;
71790;SDS011;59638;52.126;5.434;2023-05-07T07:47:01;9.20;;;8.40;;
71790;SDS011;59638;52.126;5.434;2023-05-07T07:49:28;10.95;;;9.98;;
71790;SDS011;59638;52.126;5.434;2023-05-07T07:51:54;9.88;;;8.98;;
71790;SDS011;59638;52.126;5.434;2023-05-07T07:54:22;10.60;;;9.60;;
71790;SDS011;59638;52.126;5.434;2023-05-07T07:56:48;8.82;;;8.02;;
71790;SDS011;59638;52.126;5.434;2023-05-07T07:59:15;9.33;;;8.43;;
71790;SDS011;59638;52.126;5.434;2023-05-07T08:01:44;12.15;;;8.68;;
71790;SDS011;59638;52.126;5.434;2023-05-07T08:04:11;11.73;;;9.77;;
71790;SDS011;59638;52.126;5.434;2023-05-07T08:06:38;10.10;;;9.10;;
71790;SDS011;59638;52.126;5.434;2023-05-07T08:09:04;14.10;;;9.43;;
71790;SDS011;59638;52.126;5.434;2023-05-07T08:11:31;10.63;;;9.60;;
71790;SDS011;59638;52.126;5.434;2023-05-07T08:13:57;9.48;;;8.68;;
71790;SDS011;59638;52.126;5.434;2023-05-07T08:16:23;9.57;;;8.52;;
71790;SDS011;59638;52.126;5.434;2023-05-07T08:18:50;9.38;;;8.50;;
71790;SDS011;59638;52.126;5.434;2023-05-07T08:21:17;10.82;;;9.02;;
71790;SDS011;59638;52.126;5.434;2023-05-07T08:23:43;11.97;;;9.50;;
71790;SDS011;59638;52.126;5.434;2023-05-07T08:26:09;10.02;;;9.15;;
71790;SDS011;59638;52.126;5.434;2023-05-07T08:28:36;11.20;;;10.27;;
71790;SDS011;59638;52.126;5.434;2023-05-07T08:31:02;9.48;;;8.68;;
71790;SDS011;59638;52.126;5.434;2023-05-07T08:33:29;10.57;;;9.68;;
71790;SDS011;59638;52.126;5.434;2023-05-07T08:35:55;12.10;;;9.70;;
71790;SDS011;59638;52.126;5.434;2023-05-07T08:38:22;11.70;;;10.55;;
71790;SDS011;59638;52.126;5.434;2023-05-07T08:40:48;12.02;;;10.85;;
71790;SDS011;59638;52.126;5.434;2023-05-07T08:43:14;12.13;;;11.02;;
71790;SDS011;59638;52.126;5.434;2023-05-07T08:45:41;12.15;;;11.07;;
71790;SDS011;59638;52.126;5.434;2023-05-07T08:48:17;12.53;;;11.33;;
71790;SDS011;59638;52.126;5.434;2023-05-07T08:50:43;12.38;;;11.18;;
71790;SDS011;59638;52.126;5.434;2023-05-07T08:53:10;11.38;;;10.27;;
71790;SDS011;59638;52.126;5.434;2023-05-07T08:55:36;11.40;;;10.35;;
71790;SDS011;59638;52.126;5.434;2023-05-07T08:58:03;14.25;;;12.02;;
71790;SDS011;59638;52.126;5.434;2023-05-07T09:00:30;12.07;;;10.97;;
71790;SDS011;59638;52.126;5.434;2023-05-07T09:02:56;12.80;;;11.32;;
71790;SDS011;59638;52.126;5.434;2023-05-07T09:05:23;11.95;;;10.57;;
71790;SDS011;59638;52.126;5.434;2023-05-07T09:07:49;13.48;;;10.60;;
71790;SDS011;59638;52.126;5.434;2023-05-07T09:10:20;11.95;;;10.63;;
71790;SDS011;59638;52.126;5.434;2023-05-07T09:12:47;12.30;;;11.20;;
71790;SDS011;59638;52.126;5.434;2023-05-07T09:15:14;16.20;;;11.75;;
71790;SDS011;59638;52.126;5.434;2023-05-07T09:17:40;12.50;;;11.30;;
71790;SDS011;59638;52.126;5.434;2023-05-07T09:20:08;12.82;;;11.50;;
71790;SDS011;59638;52.126;5.434;2023-05-07T09:22:37;13.95;;;12.55;;
71790;SDS011;59638;52.126;5.434;2023-05-07T09:25:05;14.63;;;11.97;;
71790;SDS011;59638;52.126;5.434;2023-05-07T09:27:32;14.85;;;12.65;;
71790;SDS011;59638;52.126;5.434;2023-05-07T09:29:59;16.50;;;12.60;;
71790;SDS011;59638;52.126;5.434;2023-05-07T09:32:25;13.32;;;11.52;;
71790;SDS011;59638;52.126;5.434;2023-05-07T09:34:53;12.10;;;10.98;;
71790;SDS011;59638;52.126;5.434;2023-05-07T09:37:20;14.10;;;11.63;;
71790;SDS011;59638;52.126;5.434;2023-05-07T09:39:49;12.82;;;11.63;;
71790;SDS011;59638;52.126;5.434;2023-05-07T09:42:15;12.75;;;10.35;;
71790;SDS011;59638;52.126;5.434;2023-05-07T09:44:45;12.02;;;10.82;;
71790;SDS011;59638;52.126;5.434;2023-05-07T09:47:11;17.42;;;11.80;;
71790;SDS011;59638;52.126;5.434;2023-05-07T09:49:45;13.80;;;11.47;;
71790;SDS011;59638;52.126;5.434;2023-05-07T09:52:14;14.27;;;11.70;;
71790;SDS011;59638;52.126;5.434;2023-05-07T09:54:41;12.90;;;11.38;;
71790;SDS011;59638;52.126;5.434;2023-05-07T09:57:10;13.50;;;12.20;;
71790;SDS011;59638;52.126;5.434;2023-05-07T09:59:37;14.82;;;12.38;;
71790;SDS011;59638;52.126;5.434;2023-05-07T10:02:04;12.87;;;11.53;;
71790;SDS011;59638;52.126;5.434;2023-05-07T10:04:32;13.43;;;11.80;;
71790;SDS011;59638;52.126;5.434;2023-05-07T10:06:59;15.07;;;11.18;;
71790;SDS011;59638;52.126;5.434;2023-05-07T10:09:26;13.02;;;11.82;;
71790;SDS011;59638;52.126;5.434;2023-05-07T10:11:53;12.23;;;10.73;;
71790;SDS011;59638;52.126;5.434;2023-05-07T10:14:20;12.87;;;11.50;;
71790;SDS011;59638;52.126;5.434;2023-05-07T10:16:48;14.80;;;11.95;;
71790;SDS011;59638;52.126;5.434;2023-05-07T10:19:15;13.63;;;11.27;;
71790;SDS011;59638;52.126;5.434;2023-05-07T10:21:44;11.40;;;10.30;;
71790;SDS011;59638;52.126;5.434;2023-05-07T10:24:22;15.52;;;11.80;;
71790;SDS011;59638;52.126;5.434;2023-05-07T10:27:00;16.30;;;11.77;;
71790;SDS011;59638;52.126;5.434;2023-05-07T10:32:42;11.63;;;10.40;;
71790;SDS011;59638;52.126;5.434;2023-05-07T10:35:14;13.63;;;12.30;;
71790;SDS011;59638;52.126;5.434;2023-05-07T10:37:44;14.80;;;13.13;;
71790;SDS011;59638;52.126;5.434;2023-05-07T10:40:11;12.07;;;10.50;;
71790;SDS011;59638;52.126;5.434;2023-05-07T10:42:38;12.05;;;10.75;;
71790;SDS011;59638;52.126;5.434;2023-05-07T10:45:12;10.25;;;9.35;;
71790;SDS011;59638;52.126;5.434;2023-05-07T10:51:17;13.98;;;12.43;;
71790;SDS011;59638;52.126;5.434;2023-05-07T10:53:47;11.60;;;10.43;;
71790;SDS011;59638;52.126;5.434;2023-05-07T10:58:43;11.35;;;10.18;;
71790;SDS011;59638;52.126;5.434;2023-05-07T11:01:10;12.40;;;11.13;;
71790;SDS011;59638;52.126;5.434;2023-05-07T11:12:53;11.85;;;10.73;;
71790;SDS011;59638;52.126;5.434;2023-05-07T11:15:13;10.95;;;9.98;;
71790;SDS011;59638;52.126;5.434;2023-05-07T11:17:57;10.77;;;9.77;;
71790;SDS011;59638;52.126;5.434;2023-05-07T11:20:44;11.37;;;10.33;;
71790;SDS011;59638;52.126;5.434;2023-05-07T11:28:29;11.80;;;10.63;;
71790;SDS011;59638;52.126;5.434;2023-05-07T11:30:57;11.25;;;10.20;;
71790;SDS011;59638;52.126;5.434;2023-05-07T11:33:23;12.50;;;11.13;;
71790;SDS011;59638;52.126;5.434;2023-05-07T11:35:53;11.98;;;10.77;;
71790;SDS011;59638;52.126;5.434;2023-05-07T11:38:19;13.13;;;11.63;;
71790;SDS011;59638;52.126;5.434;2023-05-07T11:40:53;13.02;;;11.63;;
71790;SDS011;59638;52.126;5.434;2023-05-07T11:43:21;10.70;;;9.45;;
71790;SDS011;59638;52.126;5.434;2023-05-07T11:45:48;12.80;;;11.60;;
71790;SDS011;59638;52.126;5.434;2023-05-07T11:48:15;11.75;;;10.50;;
71790;SDS011;59638;52.126;5.434;2023-05-07T11:50:49;12.93;;;11.73;;
71790;SDS011;59638;52.126;5.434;2023-05-07T11:53:17;13.15;;;11.27;;
71790;SDS011;59638;52.126;5.434;2023-05-07T11:55:44;11.55;;;10.35;;
71790;SDS011;59638;52.126;5.434;2023-05-07T11:58:11;12.57;;;11.27;;
71790;SDS011;59638;52.126;5.434;2023-05-07T12:00:38;13.00;;;11.55;;
71790;SDS011;59638;52.126;5.434;2023-05-07T12:03:18;13.57;;;10.85;;
71790;SDS011;59638;52.126;5.434;2023-05-07T12:05:45;13.43;;;11.90;;
71790;SDS011;59638;52.126;5.434;2023-05-07T12:08:15;12.80;;;11.43;;
71790;SDS011;59638;52.126;5.434;2023-05-07T12:10:43;11.73;;;10.67;;
71790;SDS011;59638;52.126;5.434;2023-05-07T12:13:18;13.55;;;11.18;;
71790;SDS011;59638;52.126;5.434;2023-05-07T12:15:45;11.30;;;10.38;;
71790;SDS011;59638;52.126;5.434;2023-05-07T12:18:12;11.85;;;10.85;;
71790;SDS011;59638;52.126;5.434;2023-05-07T12:20:39;11.70;;;10.65;;
71790;SDS011;59638;52.126;5.434;2023-05-07T12:23:06;15.07;;;10.73;;
71790;SDS011;59638;52.126;5.434;2023-05-07T12:25:36;11.98;;;10.95;;
71790;SDS011;59638;52.126;5.434;2023-05-07T12:28:04;11.52;;;10.45;;
71790;SDS011;59638;52.126;5.434;2023-05-07T12:30:31;11.27;;;10.25;;
71790;SDS011;59638;52.126;5.434;2023-05-07T12:33:02;11.45;;;10.25;;
71790;SDS011;59638;52.126;5.434;2023-05-07T12:35:29;12.70;;;11.40;;
71790;SDS011;59638;52.126;5.434;2023-05-07T12:37:57;10.35;;;9.35;;
71790;SDS011;59638;52.126;5.434;2023-05-07T12:43:25;8.40;;;7.60;;
71790;SDS011;59638;52.126;5.434;2023-05-07T12:45:54;8.60;;;7.80;;
71790;SDS011;59638;52.126;5.434;2023-05-07T12:48:22;9.73;;;8.70;;
71790;SDS011;59638;52.126;5.434;2023-05-07T12:50:50;8.88;;;7.70;;
71790;SDS011;59638;52.126;5.434;2023-05-07T12:53:19;8.57;;;7.55;;
71790;SDS011;59638;52.126;5.434;2023-05-07T12:55:48;7.53;;;6.82;;
71790;SDS011;59638;52.126;5.434;2023-05-07T12:58:17;9.68;;;8.32;;
71790;SDS011;59638;52.126;5.434;2023-05-07T13:00:49;8.13;;;7.33;;
71790;SDS011;59638;52.126;5.434;2023-05-07T13:05:51;8.77;;;8.07;;
71790;SDS011;59638;52.126;5.434;2023-05-07T13:08:25;8.57;;;7.80;;
71790;SDS011;59638;52.126;5.434;2023-05-07T13:10:52;8.68;;;7.78;;
71790;SDS011;59638;52.126;5.434;2023-05-07T13:13:19;7.53;;;6.83;;
71790;SDS011;59638;52.126;5.434;2023-05-07T13:15:47;7.40;;;6.75;;
71790;SDS011;59638;52.126;5.434;2023-05-07T13:18:13;7.32;;;6.05;;
71790;SDS011;59638;52.126;5.434;2023-05-07T13:20:40;7.18;;;6.57;;
71790;SDS011;59638;52.126;5.434;2023-05-07T13:23:07;7.80;;;7.05;;
71790;SDS011;59638;52.126;5.434;2023-05-07T13:25:33;7.47;;;6.70;;
71790;SDS011;59638;52.126;5.434;2023-05-07T13:28:02;6.35;;;5.85;;
71790;SDS011;59638;52.126;5.434;2023-05-07T13:30:36;7.30;;;6.65;;
71790;SDS011;59638;52.126;5.434;2023-05-07T13:33:03;8.32;;;7.55;;
71790;SDS011;59638;52.126;5.434;2023-05-07T13:35:29;10.05;;;9.15;;
71790;SDS011;59638;52.126;5.434;2023-05-07T13:37:56;9.47;;;8.57;;
71790;SDS011;59638;52.126;5.434;2023-05-07T13:40:22;9.30;;;8.52;;
71790;SDS011;59638;52.126;5.434;2023-05-07T13:42:49;7.70;;;7.07;;
71790;SDS011;59638;52.126;5.434;2023-05-07T13:45:19;8.40;;;7.68;;
71790;SDS011;59638;52.126;5.434;2023-05-07T13:47:46;11.68;;;8.27;;
71790;SDS011;59638;52.126;5.434;2023-05-07T13:50:13;9.10;;;8.40;;
71790;SDS011;59638;52.126;5.434;2023-05-07T13:52:40;10.60;;;8.65;;
71790;SDS011;59638;52.126;5.434;2023-05-07T13:55:12;11.35;;;9.43;;
71790;SDS011;59638;52.126;5.434;2023-05-07T13:57:38;12.98;;;9.85;;
71790;SDS011;59638;52.126;5.434;2023-05-07T14:00:05;10.07;;;9.23;;
71790;SDS011;59638;52.126;5.434;2023-05-07T14:02:32;10.03;;;9.03;;
71790;SDS011;59638;52.126;5.434;2023-05-07T14:04:58;10.32;;;9.18;;
71790;SDS011;59638;52.126;5.434;2023-05-07T14:07:25;10.65;;;9.43;;
71790;SDS011;59638;52.126;5.434;2023-05-07T14:09:51;9.80;;;8.93;;
71790;SDS011;59638;52.126;5.434;2023-05-07T14:12:17;10.90;;;9.82;;
71790;SDS011;59638;52.126;5.434;2023-05-07T14:14:44;9.87;;;8.90;;
71790;SDS011;59638;52.126;5.434;2023-05-07T14:17:11;13.23;;;9.30;;
71790;SDS011;59638;52.126;5.434;2023-05-07T14:19:38;10.63;;;9.23;;
71790;SDS011;59638;52.126;5.434;2023-05-07T14:22:04;10.57;;;8.88;;
71790;SDS011;59638;52.126;5.434;2023-05-07T14:24:30;9.60;;;8.57;;
71790;SDS011;59638;52.126;5.434;2023-05-07T14:27:04;11.83;;;8.53;;
71790;SDS011;59638;52.126;5.434;2023-05-07T14:29:30;10.07;;;8.30;;
71790;SDS011;59638;52.126;5.434;2023-05-07T14:31:57;8.95;;;8.13;;
71790;SDS011;59638;52.126;5.434;2023-05-07T14:34:23;17.13;;;13.23;;
71790;SDS011;59638;52.126;5.434;2023-05-07T14:36:49;9.27;;;8.40;;
71790;SDS011;59638;52.126;5.434;2023-05-07T14:39:16;9.43;;;8.53;;
71790;SDS011;59638;52.126;5.434;2023-05-07T14:41:42;8.45;;;7.50;;
71790;SDS011;59638;52.126;5.434;2023-05-07T14:44:09;9.13;;;6.93;;
71790;SDS011;59638;52.126;5.434;2023-05-07T14:46:35;8.48;;;7.72;;
71790;SDS011;59638;52.126;5.434;2023-05-07T14:49:02;9.25;;;7.10;;
71790;SDS011;59638;52.126;5.434;2023-05-07T14:51:28;8.67;;;7.80;;
71790;SDS011;59638;52.126;5.434;2023-05-07T14:53:55;8.23;;;7.45;;
71790;SDS011;59638;52.126;5.434;2023-05-07T14:56:21;7.97;;;7.30;;
71790;SDS011;59638;52.126;5.434;2023-05-07T14:58:48;10.80;;;7.45;;
71790;SDS011;59638;52.126;5.434;2023-05-07T15:01:15;8.02;;;7.22;;
71790;SDS011;59638;52.126;5.434;2023-05-07T15:03:41;8.73;;;7.93;;
71790;SDS011;59638;52.126;5.434;2023-05-07T15:06:08;7.90;;;7.20;;
71790;SDS011;59638;52.126;5.434;2023-05-07T15:08:34;7.90;;;7.20;;